Time;durP1;ratioP1;P1;durP2;ratioP2;P2;SDS_P1;SDS_P2;PMS_P1;PMS_P2;Temp;Humidity;BMP_temperature;BMP_pressure;BME280_temperature;BME280_humidity;BME280_pressure;Samples;Min_cycle;Max_cycle;Signal;HPM_P1;HPM_P2
2022/07/09 00:02:16;;;;;;;3.23;2.33;;;16.30;99.90;;;;;;5014939;28;20175;-76
2022/07/09 00:04:42;;;;;;;4.67;2.03;;;16.30;99.90;;;;;;5032614;28;20207;-76
2022/07/09 00:07:07;;;;;;;1.63;1.30;;;16.30;99.90;;;;;;5032673;28;20179;-76
2022/07/09 00:09:32;;;;;;;4.23;1.97;;;16.20;99.90;;;;;;5032635;28;20200;-76
2022/07/09 00:11:58;;;;;;;4.53;1.60;;;16.20;99.90;;;;;;5032604;28;20283;-76
2022/07/09 00:14:24;;;;;;;2.77;1.60;;;16.20;99.90;;;;;;5014897;28;20198;-76
2022/07/09 00:16:49;;;;;;;4.03;1.70;;;16.20;99.90;;;;;;5032799;28;20168;-76
2022/07/09 00:19:15;;;;;;;3.23;1.77;;;16.10;99.90;;;;;;5032829;28;20567;-76
2022/07/09 00:21:40;;;;;;;4.10;1.67;;;16.10;99.90;;;;;;5032512;28;20183;-76
2022/07/09 00:24:06;;;;;;;4.50;1.80;;;16.00;99.90;;;;;;5032478;28;20238;-76
2022/07/09 00:26:32;;;;;;;6.17;1.93;;;16.00;99.90;;;;;;5034926;28;20184;-76
2022/07/09 00:28:57;;;;;;;3.53;1.77;;;16.00;99.90;;;;;;5036667;28;20194;-76
2022/07/09 00:31:23;;;;;;;3.97;1.90;;;15.90;99.90;;;;;;5036412;28;20250;-76
2022/07/09 00:33:48;;;;;;;3.37;1.93;;;15.90;99.90;;;;;;5036232;28;20199;-76
2022/07/09 00:36:14;;;;;;;3.93;1.63;;;15.90;99.90;;;;;;5018647;28;20198;-76
2022/07/09 00:38:39;;;;;;;2.70;1.70;;;15.90;99.90;;;;;;5019164;28;20176;-76
2022/07/09 00:41:05;;;;;;;3.83;1.67;;;15.80;99.90;;;;;;5036586;28;20196;-76
2022/07/09 00:43:31;;;;;;;5.57;2.07;;;15.80;99.90;;;;;;5035996;28;20215;-76
2022/07/09 00:45:56;;;;;;;3.97;2.07;;;15.70;99.90;;;;;;5018512;28;20175;-76
2022/07/09 00:48:22;;;;;;;3.77;1.60;;;15.70;99.90;;;;;;5036379;28;20574;-76
2022/07/09 00:50:48;;;;;;;1.90;1.80;;;15.70;99.90;;;;;;5036347;28;20203;-76
2022/07/09 00:53:16;;;;;;;1.70;1.60;;;15.70;99.90;;;;;;5018277;28;20226;-76
2022/07/09 00:55:44;;;;;;;2.53;1.90;;;15.60;99.90;;;;;;5036069;28;20176;-75
2022/07/09 00:58:11;;;;;;;4.23;1.70;;;15.60;99.90;;;;;;5036000;28;20646;-76
2022/07/09 01:00:37;;;;;;;3.90;1.77;;;15.50;99.90;;;;;;5035897;28;20198;-76
2022/07/09 01:03:02;;;;;;;1.80;1.50;;;15.50;99.90;;;;;;5018089;28;20184;-76
2022/07/09 01:05:35;;;;;;;7.53;1.90;;;15.50;99.90;;;;;;5018022;28;20621;-76
2022/07/09 01:08:04;;;;;;;3.40;1.70;;;15.40;99.90;;;;;;5036184;28;20164;-76
2022/07/09 01:10:30;;;;;;;6.27;1.57;;;15.40;99.90;;;;;;5017879;28;20207;-76
2022/07/09 01:12:56;;;;;;;1.80;1.60;;;15.30;99.90;;;;;;5035686;28;20176;-76
2022/07/09 01:15:22;;;;;;;2.73;1.67;;;15.30;99.90;;;;;;5035574;28;20542;-76
2022/07/09 01:17:47;;;;;;;2.60;2.03;;;15.30;99.90;;;;;;5035825;28;20188;-75
2022/07/09 01:20:13;;;;;;;3.50;1.63;;;15.20;99.90;;;;;;5035572;28;20173;-76
2022/07/09 01:22:41;;;;;;;3.60;1.80;;;15.20;99.90;;;;;;5035514;28;20230;-76
2022/07/09 01:25:09;;;;;;;5.57;1.70;;;15.20;99.90;;;;;;5035575;28;20195;-76
2022/07/09 01:27:37;;;;;;;3.77;1.77;;;15.20;99.90;;;;;;5035430;28;20169;-75
2022/07/09 01:30:04;;;;;;;2.33;2.00;;;15.10;99.90;;;;;;5017635;28;20180;-76
2022/07/09 01:32:30;;;;;;;2.60;1.77;;;15.10;99.90;;;;;;5017531;28;20180;-76
2022/07/09 01:34:55;;;;;;;4.07;2.17;;;15.10;99.90;;;;;;5017372;28;20334;-76
2022/07/09 01:37:21;;;;;;;2.60;1.97;;;15.10;99.90;;;;;;5034966;28;20528;-76
2022/07/09 01:39:49;;;;;;;4.27;2.00;;;15.00;99.90;;;;;;5017455;28;20658;-75
2022/07/09 01:42:19;;;;;;;5.60;1.77;;;15.00;99.90;;;;;;5035164;28;20195;-76
2022/07/09 01:44:45;;;;;;;3.70;2.00;;;15.00;99.90;;;;;;5035029;28;20215;-76
2022/07/09 01:47:11;;;;;;;4.50;2.40;;;15.00;99.90;;;;;;5017254;28;20184;-76
2022/07/09 01:49:37;;;;;;;3.07;1.90;;;15.00;99.90;;;;;;5017268;28;20180;-76
2022/07/09 01:52:04;;;;;;;3.53;2.00;;;15.00;99.90;;;;;;5034926;28;20203;-76
2022/07/09 01:54:29;;;;;;;3.60;2.20;;;15.00;99.90;;;;;;5034836;28;20623;-76
2022/07/09 01:56:55;;;;;;;3.13;1.90;;;15.00;99.90;;;;;;5017120;28;20259;-76
2022/07/09 01:59:20;;;;;;;6.33;2.10;;;15.00;99.90;;;;;;5035049;28;20263;-74
2022/07/09 02:01:46;;;;;;;2.93;2.00;;;15.00;99.90;;;;;;5017051;28;20184;-75
2022/07/09 02:04:12;;;;;;;3.03;2.20;;;15.00;99.90;;;;;;5034921;28;20617;-76
2022/07/09 02:06:38;;;;;;;4.30;1.93;;;15.00;99.90;;;;;;5034850;28;20184;-75
2022/07/09 02:09:03;;;;;;;3.87;2.23;;;14.90;99.90;;;;;;5016770;28;20180;-76
2022/07/09 02:11:29;;;;;;;2.93;2.30;;;14.90;99.90;;;;;;5016749;28;20239;-76
2022/07/09 02:13:54;;;;;;;4.73;2.00;;;14.90;99.90;;;;;;5016744;28;20200;-76
2022/07/09 02:16:20;;;;;;;2.70;2.30;;;14.90;99.90;;;;;;5034470;28;20175;-76
2022/07/09 02:18:45;;;;;;;3.10;2.03;;;14.90;99.90;;;;;;5034641;28;20538;-76
2022/07/09 02:21:11;;;;;;;3.10;1.83;;;14.90;99.90;;;;;;5034624;28;20178;-76
2022/07/09 02:23:37;;;;;;;2.00;1.70;;;14.80;99.90;;;;;;5034308;28;20279;-76
2022/07/09 02:26:02;;;;;;;2.00;1.87;;;14.80;99.90;;;;;;5016495;28;20210;-75
2022/07/09 02:28:28;;;;;;;3.23;1.87;;;14.80;99.90;;;;;;5017419;28;20211;-76
2022/07/09 02:30:54;;;;;;;3.53;2.20;;;14.80;99.90;;;;;;5034165;28;20204;-76
2022/07/09 02:33:20;;;;;;;2.60;2.30;;;14.80;99.90;;;;;;5034070;28;20242;-76
2022/07/09 02:35:46;;;;;;;4.67;2.40;;;14.70;99.90;;;;;;5034400;28;20168;-76
2022/07/09 02:38:12;;;;;;;3.47;2.23;;;14.70;99.90;;;;;;5034071;28;20180;-76
2022/07/09 02:40:37;;;;;;;5.83;2.17;;;14.70;99.90;;;;;;5016224;28;20234;-76
2022/07/09 02:43:03;;;;;;;2.63;2.43;;;14.70;99.90;;;;;;5033977;28;20183;-75
2022/07/09 02:45:28;;;;;;;2.70;1.90;;;14.70;99.90;;;;;;5033685;28;20277;-76
2022/07/09 02:47:54;;;;;;;5.53;2.20;;;14.70;99.90;;;;;;5033476;28;20550;-76
2022/07/09 02:50:19;;;;;;;3.17;2.23;;;14.70;99.90;;;;;;5033560;28;20216;-76
2022/07/09 02:52:45;;;;;;;2.77;2.10;;;14.70;99.90;;;;;;5033892;28;20314;-75
2022/07/09 02:55:10;;;;;;;2.90;1.93;;;14.70;99.90;;;;;;5033619;28;20189;-76
2022/07/09 02:57:36;;;;;;;3.97;2.23;;;14.70;99.90;;;;;;5034113;28;20191;-76
2022/07/09 03:00:03;;;;;;;3.27;2.00;;;14.70;99.90;;;;;;5033679;28;20172;-76
2022/07/09 03:02:29;;;;;;;2.50;2.13;;;14.70;99.90;;;;;;5033467;28;20168;-76
2022/07/09 03:04:54;;;;;;;3.57;2.20;;;14.70;99.90;;;;;;5033958;28;20202;-76
2022/07/09 03:07:20;;;;;;;3.77;2.03;;;14.70;99.90;;;;;;5015795;28;20700;-76
2022/07/09 03:09:45;;;;;;;2.33;2.00;;;14.80;99.90;;;;;;5033568;28;20704;-76
2022/07/09 03:12:11;;;;;;;2.70;2.30;;;14.80;99.90;;;;;;5033866;28;20200;-76
2022/07/09 03:14:36;;;;;;;4.77;2.20;;;14.80;99.90;;;;;;5033342;28;20245;-76
2022/07/09 03:17:02;;;;;;;2.77;2.10;;;14.80;99.90;;;;;;5033434;28;20258;-76
2022/07/09 03:19:28;;;;;;;2.23;2.00;;;14.80;99.90;;;;;;5033455;28;20669;-76
2022/07/09 03:21:53;;;;;;;5.30;2.07;;;14.80;99.90;;;;;;5014735;28;20181;-76
2022/07/09 03:24:19;;;;;;;3.80;1.97;;;14.90;99.90;;;;;;5033073;28;20235;-76
2022/07/09 03:26:44;;;;;;;5.23;2.00;;;14.80;99.90;;;;;;5015580;28;20255;-75
2022/07/09 03:29:10;;;;;;;4.30;2.50;;;14.90;99.90;;;;;;5033433;28;20223;-76
2022/07/09 03:31:35;;;;;;;2.30;2.07;;;14.90;99.90;;;;;;5033088;28;20200;-76
2022/07/09 03:34:01;;;;;;;5.63;2.27;;;14.80;99.90;;;;;;5033632;28;20275;-76
2022/07/09 03:36:26;;;;;;;3.13;2.30;;;14.90;99.90;;;;;;5015505;28;20164;-76
2022/07/09 03:38:52;;;;;;;8.00;2.33;;;14.90;99.90;;;;;;5033305;28;20168;-76
2022/07/09 03:41:18;;;;;;;5.53;2.33;;;14.80;99.90;;;;;;5033336;28;20257;-76
2022/07/09 03:43:43;;;;;;;3.07;2.60;;;14.90;99.90;;;;;;5032848;28;20208;-76
2022/07/09 03:46:09;;;;;;;3.43;2.30;;;14.90;99.90;;;;;;5016115;28;20168;-76
2022/07/09 03:48:34;;;;;;;3.33;2.40;;;14.90;99.90;;;;;;5033229;28;20631;-76
2022/07/09 03:51:00;;;;;;;3.57;2.50;;;14.90;99.90;;;;;;5015541;28;20196;-76
2022/07/09 03:53:25;;;;;;;1.97;1.77;;;14.90;99.90;;;;;;5036436;28;20195;-75
2022/07/09 03:55:51;;;;;;;3.53;2.20;;;14.90;99.90;;;;;;5018310;28;20173;-76
2022/07/09 03:58:16;;;;;;;3.27;2.00;;;14.90;99.90;;;;;;5036352;28;20168;-73
2022/07/09 04:00:42;;;;;;;2.87;2.40;;;14.90;99.90;;;;;;5035954;28;20230;-76
2022/07/09 04:03:07;;;;;;;4.50;2.17;;;14.90;99.90;;;;;;5036770;28;20188;-76
2022/07/09 04:05:33;;;;;;;2.07;1.87;;;14.90;99.90;;;;;;5033792;28;20168;-76
2022/07/09 04:07:58;;;;;;;3.90;1.80;;;14.90;99.90;;;;;;5032978;28;20255;-76
2022/07/09 04:10:24;;;;;;;2.80;1.90;;;14.80;99.90;;;;;;5032758;28;20228;-76
2022/07/09 04:12:50;;;;;;;3.87;2.53;;;14.80;99.90;;;;;;5032961;28;20589;-76
2022/07/09 04:15:15;;;;;;;3.50;2.53;;;14.80;99.90;;;;;;5032702;28;20188;-76
2022/07/09 04:17:41;;;;;;;4.00;2.30;;;14.80;99.90;;;;;;5033029;28;20176;-76
2022/07/09 04:20:07;;;;;;;5.23;2.80;;;14.80;99.90;;;;;;5033175;28;20183;-76
2022/07/09 04:22:33;;;;;;;3.50;2.57;;;14.80;99.90;;;;;;5032863;28;20207;-76
2022/07/09 04:24:59;;;;;;;5.27;2.60;;;14.80;99.90;;;;;;5032633;28;20200;-76
2022/07/09 04:27:24;;;;;;;8.23;2.70;;;14.80;99.90;;;;;;5032691;28;20639;-76
2022/07/09 04:29:50;;;;;;;6.40;3.03;;;14.80;99.90;;;;;;5032720;28;20218;-76
2022/07/09 04:32:15;;;;;;;4.13;2.60;;;14.80;99.90;;;;;;5032563;28;20207;-76
2022/07/09 04:34:42;;;;;;;3.43;2.77;;;14.70;99.90;;;;;;5032661;28;20185;-76
2022/07/09 04:37:07;;;;;;;4.43;3.23;;;14.70;99.90;;;;;;5032552;28;20164;-76
2022/07/09 04:39:33;;;;;;;4.10;2.77;;;14.70;99.90;;;;;;5032598;28;20634;-76
2022/07/09 04:41:58;;;;;;;5.43;3.07;;;14.70;99.90;;;;;;5033179;28;20199;-76
2022/07/09 04:44:24;;;;;;;4.17;2.77;;;14.70;99.90;;;;;;5014703;28;20592;-76
2022/07/09 04:46:49;;;;;;;3.27;2.57;;;14.70;99.90;;;;;;5032548;28;20655;-76
2022/07/09 04:49:15;;;;;;;4.67;3.23;;;14.80;99.90;;;;;;5032498;28;20172;-76
2022/07/09 04:51:40;;;;;;;3.63;3.20;;;14.80;99.90;;;;;;5032453;28;20199;-76
2022/07/09 04:54:06;;;;;;;5.93;3.80;;;14.90;99.90;;;;;;5032363;28;20188;-76
2022/07/09 04:56:32;;;;;;;4.83;4.27;;;14.90;99.90;;;;;;5014761;28;20175;-76
2022/07/09 04:59:00;;;;;;;4.67;3.60;;;14.90;99.90;;;;;;5032414;28;20590;-76
2022/07/09 05:01:26;;;;;;;5.37;3.37;;;14.90;99.90;;;;;;5032690;28;20200;-76
2022/07/09 05:03:52;;;;;;;6.43;3.80;;;15.00;99.90;;;;;;5032517;28;20192;-76
2022/07/09 05:06:19;;;;;;;4.27;3.87;;;15.00;99.90;;;;;;5014661;28;20216;-76
2022/07/09 05:08:47;;;;;;;4.10;3.70;;;15.00;99.90;;;;;;5014560;28;20577;-76
2022/07/09 05:11:13;;;;;;;5.07;3.53;;;15.00;99.90;;;;;;5032316;28;20737;-76
2022/07/09 05:13:41;;;;;;;5.40;3.87;;;15.00;99.90;;;;;;5035727;28;20591;-76
2022/07/09 05:16:08;;;;;;;5.13;3.77;;;15.10;99.90;;;;;;5035860;28;20168;-76
2022/07/09 05:18:33;;;;;;;5.57;4.00;;;15.10;99.90;;;;;;5017952;28;20259;-76
2022/07/09 05:20:59;;;;;;;8.47;4.53;;;15.10;99.90;;;;;;5035626;28;20255;-76
2022/07/09 05:23:25;;;;;;;6.50;4.23;;;15.20;99.90;;;;;;5035755;28;20183;-76
2022/07/09 05:25:50;;;;;;;15.97;12.17;;;15.20;99.90;;;;;;5035969;28;20238;-76
2022/07/09 05:28:16;;;;;;;18.87;15.53;;;15.30;99.90;;;;;;5035554;28;20557;-76
2022/07/09 05:30:41;;;;;;;20.03;13.90;;;15.40;99.90;;;;;;5035394;28;20282;-76
2022/07/09 05:33:08;;;;;;;22.53;17.70;;;15.60;99.90;;;;;;5035345;28;20273;-76
2022/07/09 05:35:33;;;;;;;13.13;10.20;;;15.70;99.90;;;;;;5035617;28;20172;-76
2022/07/09 05:37:59;;;;;;;16.30;9.93;;;15.70;99.90;;;;;;5035277;28;20172;-76
2022/07/09 05:40:25;;;;;;;21.83;15.87;;;15.80;99.90;;;;;;5017559;28;20180;-76
2022/07/09 05:42:50;;;;;;;20.93;17.73;;;15.90;99.90;;;;;;5035351;28;20176;-75
2022/07/09 05:45:16;;;;;;;23.23;17.83;;;16.10;99.90;;;;;;5068331;23;20295;-95
2022/07/09 05:47:42;;;;;;;23.83;16.90;;;16.20;99.90;;;;;;5063794;28;20198;-93
2022/07/09 05:50:08;;;;;;;26.20;17.77;;;16.30;99.90;;;;;;5063417;28;20206;-94
2022/07/09 05:52:33;;;;;;;26.57;17.57;;;16.50;99.90;;;;;;5063505;28;20243;-94
2022/07/09 05:54:59;;;;;;;25.33;16.97;;;16.60;99.90;;;;;;5080572;28;20171;-94
2022/07/09 05:57:25;;;;;;;28.20;16.43;;;16.70;99.90;;;;;;5063263;28;20164;-94
2022/07/09 05:59:51;;;;;;;24.37;18.27;;;16.80;99.90;;;;;;5063442;28;20251;-94
2022/07/09 06:02:17;;;;;;;20.43;17.70;;;16.80;99.90;;;;;;5080690;28;20171;-94
2022/07/09 06:04:43;;;;;;;24.03;17.30;;;17.00;99.90;;;;;;5063328;28;20185;-94
2022/07/09 06:07:09;;;;;;;21.07;14.60;;;17.10;99.90;;;;;;5063327;28;20172;-95
2022/07/09 06:09:34;;;;;;;25.03;16.30;;;17.40;99.90;;;;;;5080426;28;20175;-96
2022/07/09 06:12:00;;;;;;;23.13;15.73;;;17.90;99.90;;;;;;5063192;28;20215;-96
2022/07/09 06:14:26;;;;;;;19.10;14.37;;;17.60;99.90;;;;;;5063249;28;20206;-94
2022/07/09 06:16:51;;;;;;;25.23;16.43;;;17.70;99.90;;;;;;5063144;28;20172;-95
2022/07/09 06:19:17;;;;;;;26.37;16.57;;;18.00;99.90;;;;;;5063177;28;20182;-95
2022/07/09 06:21:42;;;;;;;20.83;14.73;;;18.20;99.90;;;;;;5063091;28;20277;-95
2022/07/09 06:24:08;;;;;;;21.87;15.10;;;18.00;99.90;;;;;;5062072;28;20188;-95
2022/07/09 06:26:33;;;;;;;23.27;15.13;;;17.70;99.90;;;;;;5063037;28;20175;-94
2022/07/09 06:29:00;;;;;;;21.43;15.80;;;18.00;99.90;;;;;;5080153;28;20167;-95
2022/07/09 06:31:25;;;;;;;22.00;15.40;;;18.00;99.90;;;;;;5062865;28;20203;-95
2022/07/09 06:33:52;;;;;;;23.40;14.93;;;18.20;99.90;;;;;;5079900;28;20194;-95
2022/07/09 06:36:17;;;;;;;20.90;14.50;;;18.10;99.90;;;;;;5062205;28;20173;-94
2022/07/09 06:41:28;;;;;;;20.80;9.23;;;18.30;99.90;;;;;;5079977;28;20225;-94
2022/07/09 06:43:53;;;;;;;12.10;6.40;;;18.30;99.90;;;;;;5062720;28;20168;-94
2022/07/09 06:46:19;;;;;;;11.53;5.03;;;18.30;99.90;;;;;;5062401;28;20226;-94
2022/07/09 06:48:45;;;;;;;8.00;4.70;;;18.60;99.90;;;;;;5079531;28;20183;-95
2022/07/09 06:51:10;;;;;;;10.53;5.53;;;18.40;99.90;;;;;;5062175;28;20238;-94
2022/07/09 06:53:37;;;;;;;9.60;5.40;;;18.40;99.90;;;;;;5062589;28;20171;-93
2022/07/09 06:56:03;;;;;;;11.03;6.53;;;18.50;99.90;;;;;;5062342;28;20179;-93
2022/07/09 06:58:28;;;;;;;11.23;5.13;;;18.50;99.90;;;;;;5079130;28;20171;-95
2022/07/09 07:00:54;;;;;;;7.63;4.67;;;18.60;99.90;;;;;;5062204;28;20233;-94
2022/07/09 07:03:19;;;;;;;11.83;5.07;;;18.70;99.90;;;;;;5062342;28;20190;-94
2022/07/09 07:05:45;;;;;;;8.63;5.17;;;18.60;99.90;;;;;;5062215;28;20198;-95
2022/07/09 07:08:10;;;;;;;13.00;5.93;;;18.70;99.90;;;;;;5062240;28;20207;-94
2022/07/09 07:10:36;;;;;;;11.97;5.93;;;19.20;99.90;;;;;;5062097;28;20203;-96
2022/07/09 07:13:02;;;;;;;11.47;5.63;;;18.70;99.90;;;;;;5062028;28;20243;-95
2022/07/09 07:15:27;;;;;;;10.37;5.87;;;18.90;99.90;;;;;;5062172;28;20152;-95
2022/07/09 07:17:53;;;;;;;10.20;5.13;;;18.80;99.90;;;;;;5062044;28;20166;-96
2022/07/09 07:20:22;;;;;;;12.53;4.80;;;19.00;99.90;;;;;;5062030;28;20210;-96
2022/07/09 07:22:48;;;;;;;11.20;5.03;;;18.80;99.90;;;;;;5062115;28;20162;-96
2022/07/09 07:25:14;;;;;;;10.07;5.03;;;19.00;99.90;;;;;;5078967;28;20184;-94
2022/07/09 07:27:39;;;;;;;7.60;4.70;;;19.20;99.90;;;;;;5061868;28;20188;-96
2022/07/09 07:30:06;;;;;;;13.47;5.13;;;19.00;99.90;;;;;;5061571;28;20234;-95
2022/07/09 07:32:31;;;;;;;10.13;4.67;;;19.00;99.90;;;;;;5061834;28;20243;-96
2022/07/09 07:35:02;;;;;;;15.57;5.63;;;19.20;99.90;;;;;;5061608;28;20148;-96
2022/07/09 07:37:31;;;;;;;8.33;4.73;;;19.10;99.90;;;;;;5061752;28;20166;-96
2022/07/09 07:39:58;;;;;;;9.67;5.00;;;19.30;99.90;;;;;;5061774;28;20202;-96
2022/07/09 07:42:24;;;;;;;9.30;4.70;;;19.30;99.90;;;;;;5061631;28;20163;-96
2022/07/09 07:44:50;;;;;;;7.47;4.37;;;19.40;99.90;;;;;;5078757;28;20226;-96
2022/07/09 07:47:15;;;;;;;7.10;3.03;;;19.60;99.90;;;;;;5061808;28;20191;-96
2022/07/09 07:49:41;;;;;;;5.40;3.00;;;19.50;99.90;;;;;;5061455;28;20191;-96
2022/07/09 07:52:07;;;;;;;4.90;2.43;;;19.40;99.90;;;;;;5061242;28;20207;-96
2022/07/09 07:54:35;;;;;;;6.13;2.50;;;19.50;99.90;;;;;;5061575;28;20168;-96
2022/07/09 07:57:01;;;;;;;5.70;2.63;;;19.40;99.90;;;;;;5061792;22;20231;-75
2022/07/09 07:59:27;;;;;;;3.70;1.73;;;19.70;99.90;;;;;;5023587;28;20241;-75
2022/07/09 08:01:52;;;;;;;4.10;2.00;;;19.70;99.90;;;;;;5040322;28;20183;-75
2022/07/09 08:04:18;;;;;;;5.90;2.30;;;19.80;99.90;;;;;;5040371;28;20188;-75
2022/07/09 08:06:43;;;;;;;4.13;2.23;;;20.00;99.90;;;;;;5021827;28;20191;-75
2022/07/09 08:09:09;;;;;;;6.10;2.10;;;20.00;99.90;;;;;;5040107;28;20202;-75
2022/07/09 08:11:34;;;;;;;4.10;1.60;;;20.00;99.90;;;;;;5039191;28;20245;-75
2022/07/09 08:14:00;;;;;;;3.00;1.90;;;20.10;99.90;;;;;;5039733;28;20183;-75
2022/07/09 08:16:25;;;;;;;4.33;1.80;;;20.20;99.90;;;;;;5040896;28;20255;-75
2022/07/09 08:18:51;;;;;;;2.97;1.73;;;20.30;99.90;;;;;;5040568;28;20180;-75
2022/07/09 08:21:16;;;;;;;2.27;1.50;;;20.30;99.90;;;;;;5040346;28;20176;-75
2022/07/09 08:23:51;;;;;;;2.60;1.10;;;20.30;99.90;;;;;;5040374;28;20172;-75
2022/07/09 08:26:18;;;;;;;2.93;1.40;;;20.30;99.90;;;;;;5039957;28;20160;-75
2022/07/09 08:28:44;;;;;;;3.67;1.60;;;20.30;99.90;;;;;;5039839;28;20165;-76
2022/07/09 08:31:09;;;;;;;2.27;1.33;;;20.30;99.90;;;;;;5021734;28;20195;-76
2022/07/09 08:33:35;;;;;;;3.90;1.50;;;20.30;99.90;;;;;;5040284;28;20282;-75
2022/07/09 08:36:00;;;;;;;1.73;1.40;;;20.40;99.90;;;;;;5021958;28;20260;-75
2022/07/09 08:38:27;;;;;;;2.20;1.60;;;20.20;99.90;;;;;;5039208;28;20180;-75
2022/07/09 08:40:53;;;;;;;1.67;1.53;;;20.30;99.90;;;;;;5022356;28;20184;-75
2022/07/09 08:43:19;;;;;;;2.60;1.67;;;20.30;99.90;;;;;;5040699;28;20607;-75
2022/07/09 08:45:46;;;;;;;2.20;1.33;;;20.30;99.90;;;;;;5039173;28;20224;-75
2022/07/09 08:48:12;;;;;;;3.37;1.20;;;20.30;99.90;;;;;;5025027;28;20177;-75
2022/07/09 08:50:40;;;;;;;2.50;1.37;;;20.40;99.90;;;;;;5025902;28;20207;-75
2022/07/09 08:53:05;;;;;;;3.37;1.70;;;20.40;99.90;;;;;;5044719;28;20165;-75
2022/07/09 08:55:32;;;;;;;2.63;1.30;;;20.60;99.90;;;;;;5027173;28;20234;-76
2022/07/09 08:57:58;;;;;;;1.37;1.10;;;20.70;99.90;;;;;;5046141;28;20156;-75
2022/07/09 09:00:23;;;;;;;2.67;1.47;;;20.80;99.90;;;;;;5027638;28;20207;-75
2022/07/09 09:02:49;;;;;;;6.53;2.20;;;20.90;99.90;;;;;;5044753;28;20184;-75
2022/07/09 09:05:15;;;;;;;3.60;2.23;;;21.00;99.90;;;;;;5043188;28;20226;-76
2022/07/09 09:07:42;;;;;;;4.80;2.30;;;21.10;99.90;;;;;;5026085;28;20184;-76
2022/07/09 09:10:08;;;;;;;6.43;2.60;;;21.20;99.90;;;;;;5043152;28;20168;-77
2022/07/09 09:12:34;;;;;;;5.70;2.80;;;21.30;99.90;;;;;;5043621;28;20180;-75
2022/07/09 09:15:03;;;;;;;7.80;3.60;;;21.40;99.90;;;;;;5025145;28;20192;-75
2022/07/09 09:17:30;;;;;;;4.37;2.80;;;21.50;99.90;;;;;;5042346;28;20180;-75
2022/07/09 09:19:55;;;;;;;6.17;2.83;;;21.50;99.90;;;;;;5042457;28;20232;-75
2022/07/09 09:22:21;;;;;;;3.70;1.90;;;21.60;99.90;;;;;;5042973;28;20267;-75
2022/07/09 09:24:51;;;;;;;3.53;1.67;;;21.70;99.90;;;;;;5042412;28;20200;-76
2022/07/09 09:27:16;;;;;;;2.40;1.67;;;21.80;99.90;;;;;;5042849;28;20268;-75
2022/07/09 09:29:51;;;;;;;2.67;1.40;;;21.90;99.90;;;;;;5024752;28;20219;-76
2022/07/09 09:32:21;;;;;;;2.90;1.47;;;21.90;99.90;;;;;;5042561;28;20196;-75
2022/07/09 09:34:50;;;;;;;4.73;1.27;;;22.00;99.90;;;;;;5042485;28;20207;-75
2022/07/09 09:37:26;;;;;;;1.07;0.97;;;22.00;99.90;;;;;;5042006;28;20172;-75
2022/07/09 09:39:51;;;;;;;1.73;0.93;;;22.00;99.90;;;;;;5024435;28;20172;-75
2022/07/09 09:42:17;;;;;;;4.83;1.53;;;22.10;99.90;;;;;;5024149;28;20187;-76
2022/07/09 09:44:44;;;;;;;3.67;1.73;;;22.10;99.90;;;;;;5024221;28;20674;-76
2022/07/09 09:47:10;;;;;;;3.23;1.43;;;22.30;99.90;;;;;;5024361;28;20184;-75
2022/07/09 09:49:37;;;;;;;2.77;1.00;;;22.40;99.90;;;;;;5041876;28;20172;-75
2022/07/09 09:52:04;;;;;;;3.33;1.23;;;22.60;99.90;;;;;;5024203;28;20207;-75
2022/07/09 09:54:32;;;;;;;3.60;1.40;;;22.70;99.90;;;;;;5041564;28;20192;-76
2022/07/09 09:56:59;;;;;;;2.30;1.17;;;22.70;99.90;;;;;;5023823;28;20222;-75
2022/07/09 09:59:25;;;;;;;3.80;1.10;;;22.60;99.90;;;;;;5023754;28;20626;-75
2022/07/09 10:01:50;;;;;;;3.47;0.97;;;22.70;99.90;;;;;;5023688;28;20272;-75
2022/07/09 10:04:16;;;;;;;1.67;1.30;;;22.70;99.90;;;;;;5041645;28;20238;-76
2022/07/09 10:06:42;;;;;;;1.87;1.10;;;22.70;99.90;;;;;;5024693;28;20187;-75
2022/07/09 10:09:11;;;;;;;1.97;1.07;;;22.80;99.90;;;;;;5041979;28;20199;-75
2022/07/09 10:11:48;;;;;;;1.77;1.30;;;22.70;99.90;;;;;;5023297;28;20200;-76
2022/07/09 10:14:23;;;;;;;2.03;1.43;;;22.70;99.90;;;;;;5023016;28;20196;-76
2022/07/09 10:16:50;;;;;;;1.37;1.17;;;22.60;99.90;;;;;;5023696;28;20530;-75
2022/07/09 10:19:32;;;;;;;2.20;1.37;;;22.60;99.90;;;;;;5023172;28;20219;-76
2022/07/09 10:21:59;;;;;;;1.23;1.03;;;22.50;99.90;;;;;;5022913;28;20172;-76
2022/07/09 10:24:32;;;;;;;1.57;0.90;;;22.60;99.90;;;;;;5023261;28;20303;-76
2022/07/09 10:27:12;;;;;;;1.17;0.67;;;22.50;99.90;;;;;;5022762;28;20176;-76
2022/07/09 10:29:58;;;;;;;2.50;0.70;;;22.60;99.90;;;;;;5041088;28;20179;-75
2022/07/09 10:32:29;;;;;;;0.50;0.43;;;22.70;99.90;;;;;;5040619;28;20254;-76
2022/07/09 10:35:05;;;;;;;0.80;0.57;;;22.70;99.90;;;;;;5023119;28;20189;-75
2022/07/09 10:37:38;;;;;;;0.77;0.60;;;22.80;99.90;;;;;;5040392;28;20164;-76
2022/07/09 10:40:16;;;;;;;0.60;0.57;;;22.80;99.90;;;;;;5023109;28;20194;-76
2022/07/09 10:42:44;;;;;;;1.30;0.63;;;22.90;99.90;;;;;;5023576;28;20515;-76
2022/07/09 10:45:39;;;;;;;1.00;0.67;;;22.90;99.90;;;;;;5041582;28;20211;-76
2022/07/09 10:48:06;;;;;;;1.43;0.80;;;22.80;99.90;;;;;;5039477;28;20190;-76
2022/07/09 10:50:35;;;;;;;0.80;0.60;;;22.80;99.90;;;;;;5043534;28;20208;-76
2022/07/09 10:53:02;;;;;;;0.80;0.70;;;22.90;99.90;;;;;;5042950;28;20180;-76
2022/07/09 10:55:29;;;;;;;3.60;0.80;;;23.10;99.30;;;;;;5022554;28;20236;-76
2022/07/09 10:57:55;;;;;;;2.30;0.70;;;23.10;87.00;;;;;;5023003;28;20168;-76
2022/07/09 11:00:29;;;;;;;1.83;0.90;;;23.20;99.20;;;;;;5022713;28;20199;-76
2022/07/09 11:02:59;;;;;;;0.83;0.60;;;23.20;65.70;;;;;;5040539;28;20232;-76
2022/07/09 11:05:26;;;;;;;2.50;0.80;;;23.40;96.30;;;;;;5040032;28;20192;-76
2022/07/09 11:08:06;;;;;;;5.77;1.03;;;23.40;87.20;;;;;;5039815;28;20168;-76
2022/07/09 11:10:36;;;;;;;1.40;1.10;;;23.40;74.90;;;;;;5039636;28;20188;-76
2022/07/09 11:13:02;;;;;;;3.07;0.73;;;23.50;33.20;;;;;;5022472;28;20180;-76
2022/07/09 11:15:30;;;;;;;1.60;1.00;;;23.50;40.90;;;;;;5039616;28;20588;-77
2022/07/09 11:18:00;;;;;;;1.60;1.17;;;23.40;52.10;;;;;;5021507;28;20176;-75
2022/07/09 11:20:27;;;;;;;1.70;1.23;;;23.40;53.00;;;;;;5040003;28;20176;-76
2022/07/09 11:22:56;;;;;;;3.83;1.53;;;23.40;53.40;;;;;;5021708;28;20172;-76
2022/07/09 11:25:23;;;;;;;1.97;1.47;;;23.50;33.30;;;;;;5039616;28;20188;-76
2022/07/09 11:27:48;;;;;;;4.17;1.10;;;23.40;65.90;;;;;;5039546;28;20172;-76
2022/07/09 11:30:15;;;;;;;9.67;1.60;;;23.40;99.90;;;;;;5039857;28;20588;-75
2022/07/09 11:32:42;;;;;;;2.50;1.57;;;23.20;99.90;;;;;;5022381;28;20176;-76
2022/07/09 11:35:08;;;;;;;1.93;1.30;;;23.10;99.90;;;;;;5040771;28;20188;-76
2022/07/09 11:37:34;;;;;;;2.47;1.33;;;22.90;99.90;;;;;;5022050;28;20183;-76
2022/07/09 11:39:59;;;;;;;1.87;1.40;;;22.90;99.90;;;;;;5040817;28;20223;-76
2022/07/09 11:42:25;;;;;;;3.13;1.60;;;22.80;99.90;;;;;;5041585;28;20230;-76
2022/07/09 11:44:55;;;;;;;2.60;1.80;;;22.80;99.90;;;;;;5024301;28;20222;-76
2022/07/09 11:47:34;;;;;;;2.27;1.90;;;22.90;96.30;;;;;;5040686;28;20172;-76
2022/07/09 11:50:10;;;;;;;2.07;1.57;;;22.90;92.60;;;;;;5047977;23;20247;-77
2022/07/09 11:52:36;;;;;;;2.60;1.40;;;22.90;99.90;;;;;;5053546;28;20199;-77
2022/07/09 11:55:07;;;;;;;1.60;1.37;;;23.10;99.90;;;;;;5053426;28;20172;-76
2022/07/09 11:57:35;;;;;;;2.80;1.60;;;23.00;97.60;;;;;;5051783;28;20175;-77
2022/07/09 12:00:03;;;;;;;1.93;1.70;;;23.20;99.90;;;;;;5053106;28;20685;-76
2022/07/09 12:02:34;;;;;;;7.60;3.17;;;23.40;99.30;;;;;;5035385;28;20176;-77
2022/07/09 12:05:03;;;;;;;9.13;3.47;;;23.40;78.60;;;;;;5035297;28;20163;-76
2022/07/09 12:07:29;;;;;;;4.07;2.73;;;23.60;64.80;;;;;;5053340;28;20182;-77
2022/07/09 12:09:59;;;;;;;4.53;2.50;;;23.50;38.50;;;;;;5053087;28;20287;-77
2022/07/09 12:12:25;;;;;;;4.13;2.33;;;23.70;55.20;;;;;;5053409;28;20195;-77
2022/07/09 12:14:51;;;;;;;2.47;2.07;;;23.90;99.90;;;;;;5035490;28;20192;-77
2022/07/09 12:17:22;;;;;;;3.73;2.30;;;24.10;99.90;;;;;;5035408;28;20206;-77
2022/07/09 12:19:48;;;;;;;6.13;4.10;;;24.20;95.60;;;;;;5053816;28;20180;-76
2022/07/09 12:22:14;;;;;;;7.07;3.17;;;24.10;79.20;;;;;;5037204;28;20259;-77
2022/07/09 12:24:39;;;;;;;6.97;3.47;;;24.10;98.30;;;;;;5057762;28;20176;-76
2022/07/09 12:27:04;;;;;;;6.27;3.10;;;24.20;99.90;;;;;;5039139;28;20225;-77
2022/07/09 12:29:30;;;;;;;6.70;3.30;;;24.30;99.90;;;;;;5038864;28;20548;-77
2022/07/09 12:31:56;;;;;;;4.63;3.00;;;24.40;99.90;;;;;;5039044;28;20286;-77
2022/07/09 12:34:21;;;;;;;7.90;3.03;;;24.40;99.90;;;;;;5038979;28;20175;-76
2022/07/09 12:36:47;;;;;;;6.73;2.90;;;24.60;99.90;;;;;;5057860;28;20625;-77
2022/07/09 12:39:12;;;;;;;6.37;3.87;;;24.60;99.90;;;;;;5040767;28;20218;-77
2022/07/09 12:41:38;;;;;;;4.90;3.70;;;24.50;99.90;;;;;;5039114;28;20226;-77
2022/07/09 12:44:03;;;;;;;6.37;3.23;;;24.40;99.90;;;;;;5039026;28;20171;-77
2022/07/09 12:46:29;;;;;;;3.93;2.60;;;24.20;99.90;;;;;;5056651;28;20279;-77